RJDA(METAR)
10/20 20:00
METAR RJDA 201100Z 22003KT CAVOK 16/11 Q1022 RMK A3018=
戻る
トップページへ戻る
IMOC Co,.Ltd.